createdAt,value
2019-06-01T00:00:34.169Z,3.70
2019-06-01T00:03:02.036Z,3.33
2019-06-01T00:05:29.916Z,3.60
2019-06-01T00:07:57.682Z,3.43
2019-06-01T00:10:25.504Z,4.10
2019-06-01T00:12:53.371Z,3.60
2019-06-01T00:15:21.331Z,3.53
2019-06-01T00:17:50.039Z,3.63
2019-06-01T00:20:18.307Z,4.33
2019-06-01T00:22:46.033Z,3.70
2019-06-01T00:25:13.954Z,3.80
2019-06-01T00:27:42.487Z,3.93
2019-06-01T00:30:25.965Z,4.10
2019-06-01T00:32:40.974Z,3.53
2019-06-01T00:35:08.966Z,3.50
2019-06-01T00:37:36.834Z,3.30
2019-06-01T00:40:04.905Z,3.83
2019-06-01T00:42:32.767Z,3.80
2019-06-01T00:45:00.630Z,3.70
2019-06-01T00:47:28.688Z,3.47
2019-06-01T00:49:58.701Z,3.63
2019-06-01T00:52:27.853Z,3.67
2019-06-01T00:54:55.724Z,3.83
2019-06-01T00:57:23.605Z,3.70
2019-06-01T00:59:53.218Z,3.43
2019-06-01T01:02:21.296Z,3.43
2019-06-01T01:05:01.401Z,3.93
2019-06-01T01:07:29.264Z,3.90
2019-06-01T01:09:57.004Z,3.67
2019-06-01T01:12:25.040Z,3.53
2019-06-01T01:14:57.827Z,3.43
2019-06-01T01:17:25.697Z,4.10
2019-06-01T01:19:53.979Z,3.60
2019-06-01T01:22:23.551Z,3.97
2019-06-01T01:24:52.415Z,4.07
2019-06-01T01:27:20.268Z,3.50
2019-06-01T01:29:48.956Z,3.70
2019-06-01T01:32:16.908Z,3.30
2019-06-01T01:34:44.789Z,3.77
2019-06-01T01:37:12.627Z,3.50
2019-06-01T01:39:40.359Z,3.50
2019-06-01T01:42:08.170Z,3.37
2019-06-01T01:44:35.962Z,3.70
2019-06-01T01:47:04.027Z,3.50
2019-06-01T01:49:31.827Z,3.20
2019-06-01T01:51:59.624Z,3.50
2019-06-01T01:54:27.582Z,3.70
2019-06-01T01:56:56.152Z,3.60
2019-06-01T01:59:23.964Z,3.87
2019-06-01T02:01:52.508Z,3.47
2019-06-01T02:04:20.611Z,4.00
2019-06-01T02:06:48.420Z,3.77
2019-06-01T02:09:16.156Z,4.00
2019-06-01T02:11:44.042Z,5.43
2019-06-01T02:14:12.018Z,3.70
2019-06-01T02:16:39.820Z,3.90
2019-06-01T02:19:07.579Z,3.97
2019-06-01T02:21:35.305Z,3.83
2019-06-01T02:24:03.296Z,3.70
2019-06-01T02:26:31.177Z,3.70
2019-06-01T02:29:02.587Z,3.70
2019-06-01T02:31:41.634Z,3.70
2019-06-01T02:34:03.977Z,3.53
2019-06-01T02:36:31.811Z,3.53
2019-06-01T02:39:01.113Z,3.40
2019-06-01T02:41:29.178Z,3.40
2019-06-01T02:43:57.417Z,3.30
2019-06-01T02:46:26.936Z,3.37
2019-06-01T02:48:55.449Z,3.70
2019-06-01T02:51:23.346Z,3.53
2019-06-01T02:53:51.660Z,4.00
2019-06-01T02:56:19.397Z,4.10
2019-06-01T02:58:47.307Z,4.33
2019-06-01T03:01:36.315Z,5.03
2019-06-01T03:04:08.462Z,4.97
2019-06-01T03:06:39.375Z,4.97
2019-06-01T03:09:08.954Z,4.40
2019-06-01T03:11:39.230Z,4.87
2019-06-01T03:14:12.615Z,4.73
2019-06-01T03:16:41.964Z,4.57
2019-06-01T03:19:10.168Z,4.83
2019-06-01T03:21:37.989Z,5.77
2019-06-01T03:24:13.054Z,4.70
2019-06-01T03:26:44.294Z,4.47
2019-06-01T03:29:33.050Z,4.70
2019-06-01T03:32:20.947Z,4.40
2019-06-01T03:34:30.575Z,5.70
2019-06-01T03:36:58.562Z,5.60
2019-06-01T03:39:27.246Z,6.17
2019-06-01T03:41:55.395Z,5.97
2019-06-01T03:44:23.348Z,4.83
2019-06-01T03:46:51.098Z,5.07
2019-06-01T03:49:18.821Z,5.63
2019-06-01T03:51:46.606Z,5.60
2019-06-01T03:54:14.546Z,5.73
2019-06-01T03:56:42.361Z,6.73
2019-06-01T03:59:11.310Z,6.57
2019-06-01T04:01:39.262Z,7.30
2019-06-01T04:04:07.221Z,6.27
2019-06-01T04:06:35.578Z,5.57
2019-06-01T04:09:07.807Z,6.20
2019-06-01T04:11:35.771Z,7.57
2019-06-01T04:14:05.609Z,6.53
2019-06-01T04:16:33.766Z,5.77
2019-06-01T04:19:01.688Z,6.23
2019-06-01T04:21:29.513Z,7.40
2019-06-01T04:24:08.532Z,7.73
2019-06-01T04:26:36.283Z,6.70
2019-06-01T04:29:04.871Z,5.90
2019-06-01T04:31:33.101Z,6.57
2019-06-01T04:34:00.822Z,6.10
2019-06-01T04:36:30.693Z,6.37
2019-06-01T04:39:00.196Z,7.40
2019-06-01T04:41:27.984Z,7.57
2019-06-01T04:43:55.729Z,9.53
2019-06-01T04:46:23.531Z,7.57
2019-06-01T04:48:51.388Z,6.57
2019-06-01T04:51:19.253Z,6.87
2019-06-01T04:53:47.331Z,6.80
2019-06-01T04:56:15.361Z,11.50
2019-06-01T04:58:43.177Z,22.37
2019-06-01T05:01:10.986Z,10.33
2019-06-01T05:03:39.308Z,7.20
2019-06-01T05:06:07.273Z,6.73
2019-06-01T05:08:35.062Z,10.37
2019-06-01T05:11:05.246Z,8.43
2019-06-01T05:13:42.737Z,8.77
2019-06-01T05:16:10.517Z,6.50
2019-06-01T05:18:38.367Z,6.10
2019-06-01T05:21:06.455Z,6.23
2019-06-01T05:23:34.467Z,6.70
2019-06-01T05:26:02.279Z,5.97
2019-06-01T05:28:30.052Z,5.97
2019-06-01T05:30:57.754Z,6.93
2019-06-01T05:33:37.104Z,6.30
2019-06-01T05:35:55.360Z,6.93
2019-06-01T05:38:23.120Z,5.40
2019-06-01T05:40:50.881Z,5.33
2019-06-01T05:43:38.409Z,5.83
2019-06-01T05:46:06.122Z,5.87
2019-06-01T05:48:33.973Z,6.20
2019-06-01T05:51:01.770Z,6.47
2019-06-01T05:53:29.564Z,5.37
2019-06-01T05:55:57.421Z,5.53
2019-06-01T05:58:25.214Z,5.50
2019-06-01T06:00:53.059Z,6.97
2019-06-01T06:03:32.020Z,5.63
2019-06-01T06:05:50.748Z,5.73
2019-06-01T06:08:18.501Z,5.90
2019-06-01T06:10:46.324Z,6.17
2019-06-01T06:13:15.190Z,5.27
2019-06-01T06:15:43.157Z,5.13
2019-06-01T06:18:11.613Z,5.00
2019-06-01T06:20:39.811Z,5.20
2019-06-01T06:23:09.714Z,5.13
2019-06-01T06:25:39.637Z,4.90
2019-06-01T06:28:07.886Z,4.43
2019-06-01T06:30:35.667Z,4.87
2019-06-01T06:33:05.790Z,4.70
2019-06-01T06:35:33.679Z,4.60
2019-06-01T06:38:01.445Z,4.60
2019-06-01T06:40:29.206Z,4.77
2019-06-01T06:42:58.868Z,4.40
2019-06-01T06:45:26.681Z,4.23
2019-06-01T06:47:54.492Z,4.00
2019-06-01T06:50:24.087Z,4.20
2019-06-01T06:52:51.934Z,4.47
2019-06-01T06:55:20.140Z,4.13
2019-06-01T06:57:47.879Z,3.83
2019-06-01T07:00:16.400Z,3.90
2019-06-01T07:02:44.209Z,3.87
2019-06-01T07:05:13.552Z,4.27
2019-06-01T07:07:41.368Z,3.80
2019-06-01T07:10:09.171Z,3.90
2019-06-01T07:12:36.953Z,3.62
2019-06-01T07:15:09.216Z,4.25
2019-06-01T07:17:37.037Z,4.58
2019-06-01T07:20:05.025Z,4.40
2019-06-01T07:22:32.886Z,4.40
2019-06-01T07:25:05.957Z,4.55
2019-06-01T07:27:33.702Z,4.60
2019-06-01T07:30:01.475Z,4.25
2019-06-01T07:32:29.322Z,4.10
2019-06-01T07:35:00.761Z,3.60
2019-06-01T07:37:26.835Z,4.22
2019-06-01T07:39:54.681Z,3.92
2019-06-01T07:42:24.466Z,3.77
2019-06-01T07:44:57.467Z,3.90
2019-06-01T07:47:25.242Z,4.00
2019-06-01T07:49:53.036Z,3.20
2019-06-01T07:52:22.246Z,2.65
2019-06-01T07:54:50.716Z,2.60
2019-06-01T07:57:18.524Z,2.77
2019-06-01T07:59:46.252Z,2.40
2019-06-01T08:02:14.114Z,2.50
2019-06-01T08:04:53.248Z,2.35
2019-06-01T08:07:11.739Z,2.80
2019-06-01T08:09:39.480Z,2.77
2019-06-01T08:12:07.341Z,2.85
2019-06-01T08:14:35.552Z,2.67
2019-06-01T08:17:03.412Z,2.67
2019-06-01T08:19:32.042Z,2.75
2019-06-01T08:21:59.889Z,2.70
2019-06-01T08:24:28.314Z,2.80
2019-06-01T08:26:56.342Z,2.45
2019-06-01T08:29:24.672Z,2.47
2019-06-01T08:31:55.745Z,5.20
2019-06-01T08:34:27.498Z,2.75
2019-06-01T08:36:55.294Z,2.85
2019-06-01T08:39:23.509Z,2.40
2019-06-01T08:41:51.474Z,2.33
2019-06-01T08:44:19.332Z,2.02
2019-06-01T08:46:47.103Z,2.22
2019-06-01T08:49:14.891Z,2.40
2019-06-01T08:51:42.713Z,2.35
2019-06-01T08:54:10.458Z,2.10
2019-06-01T08:56:38.269Z,2.12
2019-06-01T08:59:06.110Z,2.50
2019-06-01T09:01:34.971Z,2.15
2019-06-01T09:04:03.189Z,2.50
2019-06-01T09:06:31.049Z,2.30
2019-06-01T09:08:58.878Z,2.02
2019-06-01T09:11:27.039Z,2.30
2019-06-01T09:13:54.844Z,2.30
2019-06-01T09:16:22.782Z,1.85
2019-06-01T09:18:50.578Z,2.05
2019-06-01T09:21:18.385Z,2.20
2019-06-01T09:23:46.171Z,2.33
2019-06-01T09:26:14.017Z,2.00
2019-06-01T09:28:44.161Z,2.50
2019-06-01T09:31:12.000Z,2.12
2019-06-01T09:33:39.860Z,2.17
2019-06-01T09:36:07.616Z,2.02
2019-06-01T09:38:35.814Z,1.70
2019-06-01T09:41:04.055Z,1.77
2019-06-01T09:43:32.807Z,2.15
2019-06-01T09:46:00.749Z,2.00
2019-06-01T09:48:29.388Z,2.08
2019-06-01T09:50:57.310Z,1.82
2019-06-01T09:53:25.181Z,1.80
2019-06-01T09:55:53.012Z,2.10
2019-06-01T09:58:21.040Z,2.05
2019-06-01T10:00:48.775Z,1.82
2019-06-01T10:03:16.664Z,1.60
2019-06-01T10:06:00.920Z,1.87
2019-06-01T10:08:15.524Z,1.80
2019-06-01T10:10:43.318Z,1.90
2019-06-01T10:13:11.207Z,1.90
2019-06-01T10:15:39.014Z,1.70
2019-06-01T10:18:06.836Z,1.72
2019-06-01T10:20:34.851Z,1.70
2019-06-01T10:23:02.809Z,1.70
2019-06-01T10:25:30.708Z,1.70
2019-06-01T10:27:58.528Z,1.50
2019-06-01T10:30:26.274Z,1.70
2019-06-01T10:32:54.034Z,1.52
2019-06-01T10:35:21.806Z,1.70
2019-06-01T10:37:49.518Z,1.70
2019-06-01T10:40:17.332Z,1.60
2019-06-01T10:42:45.137Z,1.70
2019-06-01T10:45:13.833Z,1.87
2019-06-01T10:47:42.339Z,3.42
2019-06-01T10:50:10.265Z,2.10
2019-06-01T10:52:38.475Z,2.00
2019-06-01T10:55:07.462Z,2.22
2019-06-01T10:57:36.602Z,1.77
2019-06-01T11:00:05.969Z,13.90
2019-06-01T11:02:34.751Z,1.82
2019-06-01T11:05:02.968Z,2.10
2019-06-01T11:07:30.681Z,1.87
2019-06-01T11:09:58.458Z,1.90
2019-06-01T11:12:26.336Z,1.57
2019-06-01T11:14:54.126Z,2.80
2019-06-01T11:17:21.864Z,2.98
2019-06-01T11:19:49.616Z,1.95
2019-06-01T11:22:17.343Z,2.30
2019-06-01T11:24:45.125Z,2.12
2019-06-01T11:27:12.939Z,1.92
2019-06-01T11:29:49.116Z,2.20
2019-06-01T11:32:10.660Z,1.60
2019-06-01T11:34:38.583Z,1.60
2019-06-01T11:37:06.338Z,2.37
2019-06-01T11:39:34.551Z,1.45
2019-06-01T11:42:02.408Z,1.60
2019-06-01T11:44:30.246Z,1.70
2019-06-01T11:46:58.305Z,1.80
2019-06-01T11:49:26.079Z,1.60
2019-06-01T11:51:53.870Z,1.50
2019-06-01T11:54:21.669Z,1.75
2019-06-01T11:56:49.451Z,1.55
2019-06-01T11:59:21.142Z,1.80
2019-06-01T12:01:47.477Z,1.70
2019-06-01T12:04:15.439Z,1.90
2019-06-01T12:06:44.050Z,1.50
2019-06-01T12:09:11.993Z,1.70
2019-06-01T12:11:40.094Z,1.90
2019-06-01T12:14:08.006Z,1.90
2019-06-01T12:16:36.391Z,1.60
2019-06-01T12:19:04.666Z,1.80
2019-06-01T12:21:32.441Z,1.80
2019-06-01T12:24:00.341Z,1.80
2019-06-01T12:26:28.056Z,2.10
2019-06-01T12:28:55.866Z,1.82
2019-06-01T12:31:23.598Z,1.80
2019-06-01T12:33:52.755Z,1.82
2019-06-01T12:36:20.611Z,1.60
2019-06-01T12:38:51.663Z,1.70
2019-06-01T12:41:20.758Z,1.90
2019-06-01T12:44:16.985Z,1.70
2019-06-01T12:46:44.846Z,1.70
2019-06-01T12:49:13.568Z,2.08
2019-06-01T12:51:42.515Z,2.20
2019-06-01T12:54:11.770Z,1.50
2019-06-01T12:56:42.690Z,1.75
2019-06-01T12:59:10.624Z,1.90
2019-06-01T13:01:41.058Z,1.70
2019-06-01T13:04:09.483Z,1.72
2019-06-01T13:06:37.284Z,1.60
2019-06-01T13:09:07.328Z,1.70
2019-06-01T13:11:35.174Z,1.90
2019-06-01T13:14:41.186Z,1.87
2019-06-01T13:17:09.044Z,1.62
2019-06-01T13:19:38.397Z,1.82
2019-06-01T13:22:07.385Z,1.72
2019-06-01T13:24:56.091Z,1.80
2019-06-01T13:27:29.119Z,1.80
2019-06-01T13:29:58.829Z,1.75
2019-06-01T13:32:26.580Z,1.70
2019-06-01T13:34:54.519Z,1.70
2019-06-01T13:37:22.322Z,1.50
2019-06-01T13:39:58.120Z,1.70
2019-06-01T13:42:24.067Z,1.47
2019-06-01T13:44:52.045Z,1.60
2019-06-01T13:47:19.865Z,1.50
2019-06-01T13:49:48.398Z,1.62
2019-06-01T13:52:18.446Z,1.50
2019-06-01T13:54:46.471Z,1.50
2019-06-01T13:57:15.110Z,1.40
2019-06-01T13:59:44.463Z,2.10
2019-06-01T14:02:12.374Z,9.65
2019-06-01T14:04:45.450Z,3.10
2019-06-01T14:07:13.251Z,1.50
2019-06-01T14:09:41.134Z,1.50
2019-06-01T14:12:08.932Z,1.60
2019-06-01T14:14:39.536Z,1.50
2019-06-01T14:17:08.584Z,1.35
2019-06-01T14:19:36.385Z,1.55
2019-06-01T14:22:04.481Z,1.65
2019-06-01T14:24:32.594Z,1.52
2019-06-01T14:27:00.329Z,1.30
2019-06-01T14:29:28.229Z,1.80
2019-06-01T14:32:15.426Z,1.82
2019-06-01T14:34:43.324Z,1.50
2019-06-01T14:37:11.074Z,1.45
2019-06-01T14:39:39.363Z,1.40
2019-06-01T14:42:07.254Z,1.50
2019-06-01T14:44:35.154Z,1.40
2019-06-01T14:47:05.959Z,1.50
2019-06-01T14:49:32.584Z,1.62
2019-06-01T14:52:00.440Z,1.40
2019-06-01T14:54:28.308Z,1.47
2019-06-01T14:56:56.109Z,1.40
2019-06-01T14:59:23.969Z,2.83
2019-06-01T15:01:52.178Z,1.40
2019-06-01T15:04:20.222Z,1.85
2019-06-01T15:06:48.215Z,1.40
2019-06-01T15:09:19.508Z,1.60
2019-06-01T15:11:45.812Z,1.50
2019-06-01T15:14:14.089Z,1.37
2019-06-01T15:16:41.870Z,1.62
2019-06-01T15:19:09.621Z,1.45
2019-06-01T15:21:37.488Z,2.52
2019-06-01T15:24:05.393Z,1.60
2019-06-01T15:26:33.192Z,2.22
2019-06-01T15:29:00.981Z,2.40
2019-06-01T15:31:28.845Z,1.80
2019-06-01T15:33:57.423Z,1.80
2019-06-01T15:36:25.332Z,1.47
2019-06-01T15:38:53.609Z,1.80
2019-06-01T15:41:21.382Z,1.63
2019-06-01T15:43:49.205Z,1.77
2019-06-01T15:46:17.053Z,1.70
2019-06-01T15:48:53.514Z,1.67
2019-06-01T15:51:21.502Z,1.60
2019-06-01T15:53:49.286Z,1.70
2019-06-01T15:56:17.089Z,1.60
2019-06-01T15:58:52.768Z,1.43
2019-06-01T16:01:14.751Z,1.50
2019-06-01T16:03:42.588Z,1.73
2019-06-01T16:06:10.351Z,1.47
2019-06-01T16:08:43.483Z,1.43
2019-06-01T16:11:11.430Z,1.30
2019-06-01T16:13:39.206Z,1.70
2019-06-01T16:16:07.072Z,2.47
2019-06-01T16:18:50.017Z,1.67
2019-06-01T16:21:17.816Z,1.80
2019-06-01T16:23:49.682Z,2.03
2019-06-01T16:26:16.518Z,4.07
2019-06-01T16:28:45.468Z,4.43
2019-06-01T16:31:13.306Z,1.60
2019-06-01T16:33:41.093Z,1.53
2019-06-01T16:36:08.874Z,3.80
2019-06-01T16:38:38.412Z,2.10
2019-06-01T16:41:06.610Z,1.70
2019-06-01T16:43:34.377Z,1.70
2019-06-01T16:46:03.750Z,1.50
2019-06-01T16:48:31.817Z,1.50
2019-06-01T16:50:59.609Z,1.57
2019-06-01T16:53:27.456Z,1.43
2019-06-01T16:55:55.835Z,1.50
2019-06-01T16:58:23.670Z,1.60
2019-06-01T17:00:52.245Z,1.50
2019-06-01T17:03:20.140Z,1.30
2019-06-01T17:05:47.951Z,1.60
2019-06-01T17:08:15.748Z,1.73
2019-06-01T17:10:43.579Z,1.50
2019-06-01T17:13:11.327Z,1.40
2019-06-01T17:15:39.121Z,1.40
2019-06-01T17:18:10.185Z,1.27
2019-06-01T17:20:50.029Z,1.40
2019-06-01T17:23:26.717Z,1.20
2019-06-01T17:25:48.096Z,1.10
2019-06-01T17:28:16.141Z,1.50
2019-06-01T17:30:43.871Z,1.50
2019-06-01T17:33:11.701Z,1.40
2019-06-01T17:35:39.543Z,1.20
2019-06-01T17:38:07.532Z,1.50
2019-06-01T17:40:38.504Z,1.50
2019-06-01T17:43:06.687Z,1.43
2019-06-01T17:45:35.548Z,1.80
2019-06-01T17:48:18.219Z,1.60
2019-06-01T17:50:34.074Z,1.50
2019-06-01T17:53:02.536Z,1.40
2019-06-01T17:55:35.668Z,1.40
2019-06-01T17:58:05.439Z,1.37
2019-06-01T18:00:33.559Z,1.60
2019-06-01T18:03:01.619Z,2.67
2019-06-01T18:05:29.470Z,1.70
2019-06-01T18:07:57.559Z,1.30
2019-06-01T18:10:26.579Z,1.93
2019-06-01T18:12:56.640Z,1.47
2019-06-01T18:15:24.930Z,1.57
2019-06-01T18:17:52.893Z,3.00
2019-06-01T18:20:20.791Z,3.13
2019-06-01T18:22:48.752Z,3.07
2019-06-01T18:25:22.940Z,3.57
2019-06-01T18:27:51.148Z,2.70
2019-06-01T18:30:20.577Z,12.70
2019-06-01T18:32:48.770Z,9.40
2019-06-01T18:35:19.695Z,3.73
2019-06-01T18:37:46.398Z,2.70
2019-06-01T18:40:15.659Z,13.47
2019-06-01T18:42:49.492Z,13.40
2019-06-01T18:45:18.745Z,19.30
2019-06-01T18:47:47.348Z,3.80
2019-06-01T18:50:17.503Z,2.73
2019-06-01T18:52:45.598Z,19.47
2019-06-01T18:55:14.722Z,7.13
2019-06-01T18:57:50.611Z,12.00
2019-06-01T19:00:18.745Z,9.47
2019-06-01T19:02:51.669Z,4.20
2019-06-01T19:05:22.812Z,3.17
2019-06-01T19:07:50.607Z,2.07
2019-06-01T19:10:19.476Z,1.90
2019-06-01T19:12:47.539Z,2.00
2019-06-01T19:15:27.846Z,2.00
2019-06-01T19:17:48.519Z,2.00
2019-06-01T19:20:17.029Z,2.00
2019-06-01T19:22:45.090Z,2.00
2019-06-01T19:25:15.255Z,2.03
2019-06-01T19:27:43.389Z,2.00
2019-06-01T19:30:12.918Z,1.90
2019-06-01T19:32:41.785Z,2.00
2019-06-01T19:35:11.233Z,1.90
2019-06-01T19:37:41.865Z,2.30
2019-06-01T19:40:11.265Z,2.13
2019-06-01T19:42:39.548Z,2.43
2019-06-01T19:45:19.058Z,2.60
2019-06-01T19:47:38.248Z,2.20
2019-06-01T19:50:06.392Z,2.50
2019-06-01T19:52:34.251Z,2.40
2019-06-01T19:55:02.024Z,2.13
2019-06-01T19:57:29.988Z,3.30
2019-06-01T19:59:58.481Z,3.03
2019-06-01T20:02:33.681Z,4.40
2019-06-01T20:04:58.313Z,4.30
2019-06-01T20:07:26.989Z,3.50
2019-06-01T20:09:57.257Z,3.20
2019-06-01T20:12:26.034Z,2.50
2019-06-01T20:14:54.882Z,3.07
2019-06-01T20:17:30.220Z,2.53
2019-06-01T20:19:59.182Z,3.30
2019-06-01T20:22:43.979Z,2.87
2019-06-01T20:25:24.016Z,3.40
2019-06-01T20:28:05.313Z,4.67
2019-06-01T20:30:40.892Z,3.63
2019-06-01T20:33:15.978Z,4.93
2019-06-01T20:35:55.795Z,4.33
2019-06-01T20:38:24.400Z,3.63
2019-06-01T20:40:52.800Z,6.80
2019-06-01T20:43:22.806Z,7.20
2019-06-01T20:45:51.229Z,5.90
2019-06-01T20:48:20.825Z,6.07
2019-06-01T20:50:49.476Z,5.47
2019-06-01T20:53:18.929Z,5.73
2019-06-01T20:55:52.343Z,4.30
2019-06-01T20:58:22.018Z,4.10
2019-06-01T21:00:51.153Z,3.53
2019-06-01T21:03:19.783Z,2.83
2019-06-01T21:05:48.472Z,2.90
2019-06-01T21:08:18.107Z,3.00
2019-06-01T21:10:46.816Z,2.80
2019-06-01T21:13:16.040Z,2.83
2019-06-01T21:15:44.405Z,2.70
2019-06-01T21:18:14.334Z,3.20
2019-06-01T21:20:42.824Z,3.10
2019-06-01T21:23:10.992Z,3.30
2019-06-01T21:25:39.420Z,3.40
2019-06-01T21:28:07.894Z,3.83
2019-06-01T21:30:36.165Z,3.90
2019-06-01T21:33:06.226Z,3.47
2019-06-01T21:35:34.547Z,3.87
2019-06-01T21:38:02.877Z,3.70
2019-06-01T21:40:31.347Z,4.17
2019-06-01T21:43:20.286Z,5.03
2019-06-01T21:45:32.151Z,8.70
2019-06-01T21:48:00.527Z,7.67
2019-06-01T21:50:28.931Z,7.50
2019-06-01T21:52:57.431Z,3.87
2019-06-01T21:55:26.328Z,3.60
2019-06-01T21:57:59.906Z,4.33
2019-06-01T22:00:37.217Z,5.07
2019-06-01T22:03:06.615Z,4.50
2019-06-01T22:05:34.982Z,3.73
2019-06-01T22:08:04.402Z,3.37
2019-06-01T22:10:32.878Z,2.80
2019-06-01T22:13:15.274Z,3.40
2019-06-01T22:15:31.474Z,4.20
2019-06-01T22:18:05.053Z,3.33
2019-06-01T22:20:33.312Z,3.60
2019-06-01T22:23:01.714Z,3.73
2019-06-01T22:25:30.089Z,13.77
2019-06-01T22:28:03.913Z,14.90
2019-06-01T22:30:33.087Z,17.27
2019-06-01T22:33:01.615Z,9.37
2019-06-01T22:35:29.892Z,7.80
2019-06-01T22:37:58.385Z,7.30
2019-06-01T22:40:27.265Z,5.10
2019-06-01T22:42:55.919Z,4.60
2019-06-01T22:45:24.673Z,3.77
2019-06-01T22:47:55.878Z,3.27
2019-06-01T22:50:26.928Z,3.63
2019-06-01T22:52:55.538Z,9.67
2019-06-01T22:55:24.366Z,4.97
2019-06-01T22:57:53.225Z,3.30
2019-06-01T23:00:21.600Z,8.80
2019-06-01T23:02:50.107Z,7.70
2019-06-01T23:05:18.530Z,8.30
2019-06-01T23:07:47.079Z,8.23
2019-06-01T23:10:15.712Z,6.40
2019-06-01T23:12:43.960Z,10.30
2019-06-01T23:15:12.595Z,5.30
2019-06-01T23:17:41.010Z,6.43
2019-06-01T23:20:09.199Z,6.10
2019-06-01T23:22:37.667Z,4.40
2019-06-01T23:25:06.731Z,7.43
2019-06-01T23:27:35.327Z,4.30
2019-06-01T23:30:05.027Z,7.03
2019-06-01T23:32:33.275Z,7.57
2019-06-01T23:35:01.810Z,5.87
2019-06-01T23:37:30.846Z,5.20
2019-06-01T23:39:59.409Z,8.33
2019-06-01T23:42:27.247Z,6.63
2019-06-01T23:44:55.033Z,8.00
2019-06-01T23:47:29.243Z,4.90
2019-06-01T23:49:57.133Z,4.40
2019-06-01T23:52:25.525Z,3.87
2019-06-01T23:54:53.447Z,3.87
2019-06-01T23:57:21.347Z,4.00
2019-06-01T23:59:49.169Z,3.87
